الصفحة الرئيسية
METAR-TAF:

METAR-TAF

مطار :

مطار تشيناي الدولي

تشيناي, الهند

دائرة عرض: 13-00N, خط طول: 080-11E, ارتفاع: 10 متر

مراقبة الطقس الحالي

تاريخ ووقت الإصدار 15 دقيقة قبل الساعة 20:30UTC
ريح 7 عقدة من الجنوب
درجة الحرارة 31°درجة مئوية
الرطوبة 79%
ضغط 1005 hPa
الرؤية: 6000 متر
غيوم قليلة على ارتفاع 2000 قدم

METAR: VOMM 292030Z 18007KT 6000 FEW020 31/27 Q1005 NOSIG

زمن: 02:15 (20:45 UTC)

توقعات

تاريخ ووقت الإصدار 3ساعات و 45 دقيقة قبل الساعة 17:00UTC
التوقعات صالحة من29 الساعة 18 UTC إلى 30 الساعة 24 UTC
ريح 5 عقدة من الجنوب/الجنوب الغربي
الرؤية: 6000 متر
غيوم قليلة على ارتفاع 2000 قدم
أصبح
من 30 الساعة 09 UTC إلى 30 الساعة 10 UTC
ريح 10 عقدة من الجنوب الشرقي
أصبح
من 30 الساعة 18 UTC إلى 30 الساعة 19 UTC
ريح 5 عقدة من الجنوب/الجنوب الغربي

TAF: VOMM 291700Z 2918/3024 21005KT 6000 FEW020 BECMG 3009/3010 14010KT BECMG 3018/3019 21005KT

أرصاد الطقس والتوقعات من أكثر من 4000 مطار (تقارير الطقس للمطار METAR والتنبؤ بالطقس بالمطارTAF).

المحطات المتاحة هي النقط الصفراء والحمراء على الخريطة.

حرك المؤشر فوق النقطة لمعرفة اسم المحطة.

ثم انقر لمعرفة أرصاد وتوقعات الطقس.

لتغيير الخارطة: اضغط على الأزرار الخضراء مع رمز الصليب الأسود للتكبير. على الزر الأخضر مع شرطة للتصغير، أو على الأسهم الخضراء للخرائط المجاورة.


METAR-TAF: